sensor_id;sensor_type;location;lat;lon;timestamp;pressure;altitude;pressure_sealevel;temperature;humidity
49843;BME280;55559;48.898;9.184;2023-07-13T00:01:58;98359.75;;;19.54;85.18
49843;BME280;55559;48.898;9.184;2023-07-13T00:04:26;98362.00;;;19.50;85.54
49843;BME280;55559;48.898;9.184;2023-07-13T00:06:53;98356.75;;;19.42;86.16
49843;BME280;55559;48.898;9.184;2023-07-13T00:09:21;98358.16;;;19.38;87.20
49843;BME280;55559;48.898;9.184;2023-07-13T00:11:51;98353.13;;;19.28;87.93
49843;BME280;55559;48.898;9.184;2023-07-13T00:14:19;98350.63;;;19.26;87.76
49843;BME280;55559;48.898;9.184;2023-07-13T00:16:49;98346.63;;;19.22;87.70
49843;BME280;55559;48.898;9.184;2023-07-13T00:19:17;98345.00;;;19.21;88.04
49843;BME280;55559;48.898;9.184;2023-07-13T00:21:44;98350.06;;;19.09;88.32
49843;BME280;55559;48.898;9.184;2023-07-13T00:24:13;98348.97;;;19.04;89.55
49843;BME280;55559;48.898;9.184;2023-07-13T00:26:41;98347.69;;;19.00;89.94
49843;BME280;55559;48.898;9.184;2023-07-13T00:29:10;98344.69;;;18.88;91.28
49843;BME280;55559;48.898;9.184;2023-07-13T00:31:37;98343.78;;;18.81;91.86
49843;BME280;55559;48.898;9.184;2023-07-13T00:34:06;98339.41;;;18.80;91.82
49843;BME280;55559;48.898;9.184;2023-07-13T00:36:34;98341.00;;;18.74;92.07
49843;BME280;55559;48.898;9.184;2023-07-13T00:39:02;98351.78;;;18.74;92.47
49843;BME280;55559;48.898;9.184;2023-07-13T00:41:31;98342.16;;;18.65;93.28
49843;BME280;55559;48.898;9.184;2023-07-13T00:43:59;98331.75;;;18.62;93.56
49843;BME280;55559;48.898;9.184;2023-07-13T00:46:28;98341.81;;;18.53;94.62
49843;BME280;55559;48.898;9.184;2023-07-13T00:48:59;98340.34;;;18.50;94.74
49843;BME280;55559;48.898;9.184;2023-07-13T00:51:34;98343.16;;;18.42;95.90
49843;BME280;55559;48.898;9.184;2023-07-13T00:54:07;98353.94;;;18.42;95.71
49843;BME280;55559;48.898;9.184;2023-07-13T00:56:37;98345.59;;;18.37;96.36
49843;BME280;55559;48.898;9.184;2023-07-13T00:59:07;98346.97;;;18.33;95.64
49843;BME280;55559;48.898;9.184;2023-07-13T01:01:35;98342.38;;;18.27;95.87
49843;BME280;55559;48.898;9.184;2023-07-13T01:04:03;98345.50;;;18.30;95.99
49843;BME280;55559;48.898;9.184;2023-07-13T01:06:36;98339.00;;;18.25;96.20
49843;BME280;55559;48.898;9.184;2023-07-13T01:09:05;98346.16;;;18.17;96.94
49843;BME280;55559;48.898;9.184;2023-07-13T01:11:34;98350.66;;;18.10;97.52
49843;BME280;55559;48.898;9.184;2023-07-13T01:14:02;98342.31;;;18.05;97.18
49843;BME280;55559;48.898;9.184;2023-07-13T01:16:31;98340.44;;;18.06;97.04
49843;BME280;55559;48.898;9.184;2023-07-13T01:19:00;98345.53;;;18.00;97.91
49843;BME280;55559;48.898;9.184;2023-07-13T01:21:32;98349.06;;;18.01;97.05
49843;BME280;55559;48.898;9.184;2023-07-13T01:24:00;98345.47;;;17.94;97.53
49843;BME280;55559;48.898;9.184;2023-07-13T01:26:28;98344.34;;;17.88;98.32
49843;BME280;55559;48.898;9.184;2023-07-13T01:28:55;98338.50;;;17.84;98.50
49843;BME280;55559;48.898;9.184;2023-07-13T01:31:23;98324.50;;;17.74;98.68
49843;BME280;55559;48.898;9.184;2023-07-13T01:33:50;98342.28;;;17.75;99.26
49843;BME280;55559;48.898;9.184;2023-07-13T01:36:20;98338.03;;;17.66;100.00
49843;BME280;55559;48.898;9.184;2023-07-13T01:38:49;98348.31;;;17.62;100.00
49843;BME280;55559;48.898;9.184;2023-07-13T01:41:17;98354.44;;;17.56;100.00
49843;BME280;55559;48.898;9.184;2023-07-13T01:43:45;98352.38;;;17.58;100.00
49843;BME280;55559;48.898;9.184;2023-07-13T01:46:13;98351.28;;;17.53;100.00
49843;BME280;55559;48.898;9.184;2023-07-13T01:48:40;98364.91;;;17.51;100.00
49843;BME280;55559;48.898;9.184;2023-07-13T01:51:08;98367.41;;;17.53;100.00
49843;BME280;55559;48.898;9.184;2023-07-13T01:53:35;98366.94;;;17.49;100.00
49843;BME280;55559;48.898;9.184;2023-07-13T01:56:04;98373.69;;;17.45;100.00
49843;BME280;55559;48.898;9.184;2023-07-13T01:58:32;98371.19;;;17.43;100.00
49843;BME280;55559;48.898;9.184;2023-07-13T02:01:00;98370.00;;;17.46;100.00
49843;BME280;55559;48.898;9.184;2023-07-13T02:03:27;98367.38;;;17.38;100.00
49843;BME280;55559;48.898;9.184;2023-07-13T02:05:56;98370.31;;;17.28;100.00
49843;BME280;55559;48.898;9.184;2023-07-13T02:08:24;98376.78;;;17.19;100.00
49843;BME280;55559;48.898;9.184;2023-07-13T02:10:51;98374.56;;;17.22;100.00
49843;BME280;55559;48.898;9.184;2023-07-13T02:13:20;98370.38;;;17.20;100.00
49843;BME280;55559;48.898;9.184;2023-07-13T02:15:50;98374.16;;;17.10;100.00
49843;BME280;55559;48.898;9.184;2023-07-13T02:18:17;98385.28;;;17.07;100.00
49843;BME280;55559;48.898;9.184;2023-07-13T02:20:45;98380.44;;;17.03;100.00
49843;BME280;55559;48.898;9.184;2023-07-13T02:23:12;98382.94;;;17.04;100.00
49843;BME280;55559;48.898;9.184;2023-07-13T02:25:40;98387.38;;;16.97;100.00
49843;BME280;55559;48.898;9.184;2023-07-13T02:28:08;98391.06;;;16.96;100.00
49843;BME280;55559;48.898;9.184;2023-07-13T02:30:37;98392.28;;;16.94;100.00
49843;BME280;55559;48.898;9.184;2023-07-13T02:33:05;98391.78;;;16.90;100.00
49843;BME280;55559;48.898;9.184;2023-07-13T02:35:32;98388.28;;;16.81;100.00
49843;BME280;55559;48.898;9.184;2023-07-13T02:38:00;98385.13;;;16.78;100.00
49843;BME280;55559;48.898;9.184;2023-07-13T02:40:27;98386.38;;;16.67;100.00
49843;BME280;55559;48.898;9.184;2023-07-13T02:42:55;98380.66;;;16.70;100.00
49843;BME280;55559;48.898;9.184;2023-07-13T02:45:22;98386.31;;;16.75;100.00
49843;BME280;55559;48.898;9.184;2023-07-13T02:47:51;98395.69;;;16.79;100.00
49843;BME280;55559;48.898;9.184;2023-07-13T02:50:19;98391.63;;;16.83;100.00
49843;BME280;55559;48.898;9.184;2023-07-13T02:52:46;98399.84;;;16.90;100.00
49843;BME280;55559;48.898;9.184;2023-07-13T02:55:14;98400.69;;;16.90;100.00
49843;BME280;55559;48.898;9.184;2023-07-13T02:57:41;98401.88;;;17.11;100.00
49843;BME280;55559;48.898;9.184;2023-07-13T03:00:10;98393.63;;;17.13;100.00
49843;BME280;55559;48.898;9.184;2023-07-13T03:02:37;98393.84;;;17.26;100.00
49843;BME280;55559;48.898;9.184;2023-07-13T03:05:07;98398.66;;;17.16;100.00
49843;BME280;55559;48.898;9.184;2023-07-13T03:07:36;98394.44;;;17.13;100.00
49843;BME280;55559;48.898;9.184;2023-07-13T03:10:04;98382.09;;;17.27;100.00
49843;BME280;55559;48.898;9.184;2023-07-13T03:12:41;98400.53;;;17.30;100.00
49843;BME280;55559;48.898;9.184;2023-07-13T03:15:16;98401.16;;;17.17;100.00
49843;BME280;55559;48.898;9.184;2023-07-13T03:17:45;98394.56;;;17.20;100.00
49843;BME280;55559;48.898;9.184;2023-07-13T03:20:14;98403.84;;;17.17;100.00
49843;BME280;55559;48.898;9.184;2023-07-13T03:22:42;98404.06;;;17.31;100.00
49843;BME280;55559;48.898;9.184;2023-07-13T03:25:11;98407.81;;;17.21;100.00
49843;BME280;55559;48.898;9.184;2023-07-13T03:27:39;98401.81;;;17.19;100.00
49843;BME280;55559;48.898;9.184;2023-07-13T03:30:14;98414.59;;;17.17;100.00
49843;BME280;55559;48.898;9.184;2023-07-13T03:32:43;98421.19;;;17.06;100.00
49843;BME280;55559;48.898;9.184;2023-07-13T03:35:10;98412.91;;;17.16;100.00
49843;BME280;55559;48.898;9.184;2023-07-13T03:37:40;98425.22;;;17.10;100.00
49843;BME280;55559;48.898;9.184;2023-07-13T03:40:12;98427.91;;;17.34;100.00
49843;BME280;55559;48.898;9.184;2023-07-13T03:42:42;98432.88;;;17.37;100.00
49843;BME280;55559;48.898;9.184;2023-07-13T03:45:11;98439.59;;;17.41;100.00
49843;BME280;55559;48.898;9.184;2023-07-13T03:47:39;98435.69;;;17.43;100.00
49843;BME280;55559;48.898;9.184;2023-07-13T03:50:07;98440.06;;;17.44;100.00
49843;BME280;55559;48.898;9.184;2023-07-13T03:52:35;98443.34;;;17.55;100.00
49843;BME280;55559;48.898;9.184;2023-07-13T03:55:04;98446.84;;;17.55;100.00
49843;BME280;55559;48.898;9.184;2023-07-13T03:57:32;98448.78;;;17.46;100.00
49843;BME280;55559;48.898;9.184;2023-07-13T04:00:04;98451.47;;;17.46;100.00
49843;BME280;55559;48.898;9.184;2023-07-13T04:02:41;98456.47;;;17.50;100.00
49843;BME280;55559;48.898;9.184;2023-07-13T04:05:09;98451.91;;;17.73;100.00
49843;BME280;55559;48.898;9.184;2023-07-13T04:07:36;98452.44;;;17.69;100.00
49843;BME280;55559;48.898;9.184;2023-07-13T04:10:08;98454.00;;;17.63;100.00
49843;BME280;55559;48.898;9.184;2023-07-13T04:12:36;98453.63;;;17.51;100.00
49843;BME280;55559;48.898;9.184;2023-07-13T04:15:05;98453.38;;;17.61;100.00
49843;BME280;55559;48.898;9.184;2023-07-13T04:17:32;98461.06;;;17.79;99.15
49843;BME280;55559;48.898;9.184;2023-07-13T04:20:00;98451.91;;;17.73;99.12
49843;BME280;55559;48.898;9.184;2023-07-13T04:22:27;98450.91;;;17.74;98.91
49843;BME280;55559;48.898;9.184;2023-07-13T04:24:55;98454.31;;;17.68;98.78
49843;BME280;55559;48.898;9.184;2023-07-13T04:27:24;98455.47;;;17.65;100.00
49843;BME280;55559;48.898;9.184;2023-07-13T04:29:51;98468.03;;;17.73;97.09
49843;BME280;55559;48.898;9.184;2023-07-13T04:32:19;98458.00;;;17.67;97.42
49843;BME280;55559;48.898;9.184;2023-07-13T04:34:46;98461.44;;;17.61;97.42
49843;BME280;55559;48.898;9.184;2023-07-13T04:37:20;98457.41;;;17.57;96.34
49843;BME280;55559;48.898;9.184;2023-07-13T04:39:47;98463.00;;;17.70;94.32
49843;BME280;55559;48.898;9.184;2023-07-13T04:42:15;98461.03;;;17.64;94.38
49843;BME280;55559;48.898;9.184;2023-07-13T04:44:47;98462.97;;;17.55;95.79
49843;BME280;55559;48.898;9.184;2023-07-13T04:47:15;98470.94;;;17.48;96.13
49843;BME280;55559;48.898;9.184;2023-07-13T04:49:42;98469.50;;;17.38;96.46
49843;BME280;55559;48.898;9.184;2023-07-13T04:52:10;98472.03;;;17.39;96.71
49843;BME280;55559;48.898;9.184;2023-07-13T04:54:37;98470.91;;;17.34;97.45
49843;BME280;55559;48.898;9.184;2023-07-13T04:57:06;98471.09;;;17.32;97.29
49843;BME280;55559;48.898;9.184;2023-07-13T04:59:34;98472.72;;;17.33;96.74
49843;BME280;55559;48.898;9.184;2023-07-13T05:02:03;98473.78;;;17.47;96.32
49843;BME280;55559;48.898;9.184;2023-07-13T05:04:31;98476.88;;;17.59;95.76
49843;BME280;55559;48.898;9.184;2023-07-13T05:06:59;98470.91;;;17.72;95.47
49843;BME280;55559;48.898;9.184;2023-07-13T05:09:26;98468.91;;;17.89;94.67
49843;BME280;55559;48.898;9.184;2023-07-13T05:11:54;98472.38;;;18.12;92.80
49843;BME280;55559;48.898;9.184;2023-07-13T05:14:21;98468.78;;;18.20;89.96
49843;BME280;55559;48.898;9.184;2023-07-13T05:16:49;98477.75;;;18.12;89.05
49843;BME280;55559;48.898;9.184;2023-07-13T05:19:17;98470.63;;;18.34;88.32
49843;BME280;55559;48.898;9.184;2023-07-13T05:21:45;98478.88;;;18.33;86.49
49843;BME280;55559;48.898;9.184;2023-07-13T05:24:12;98486.13;;;18.47;85.97
49843;BME280;55559;48.898;9.184;2023-07-13T05:26:40;98494.28;;;18.69;86.42
49843;BME280;55559;48.898;9.184;2023-07-13T05:29:07;98481.34;;;18.79;84.50
49843;BME280;55559;48.898;9.184;2023-07-13T05:31:34;98490.22;;;19.09;83.20
49843;BME280;55559;48.898;9.184;2023-07-13T05:34:02;98484.03;;;19.15;81.84
49843;BME280;55559;48.898;9.184;2023-07-13T05:36:31;98489.88;;;18.98;81.85
49843;BME280;55559;48.898;9.184;2023-07-13T05:38:58;98485.13;;;19.00;81.97
49843;BME280;55559;48.898;9.184;2023-07-13T05:41:26;98480.94;;;18.97;81.03
49843;BME280;55559;48.898;9.184;2023-07-13T05:43:54;98484.56;;;19.26;79.64
49843;BME280;55559;48.898;9.184;2023-07-13T05:46:21;98485.88;;;18.93;80.83
49843;BME280;55559;48.898;9.184;2023-07-13T05:48:49;98489.63;;;18.92;80.32
49843;BME280;55559;48.898;9.184;2023-07-13T05:51:17;98496.88;;;18.77;80.20
49843;BME280;55559;48.898;9.184;2023-07-13T05:53:46;98488.56;;;18.78;80.71
49843;BME280;55559;48.898;9.184;2023-07-13T05:56:13;98493.25;;;18.70;82.14
49843;BME280;55559;48.898;9.184;2023-07-13T05:58:40;98499.66;;;18.69;81.69
49843;BME280;55559;48.898;9.184;2023-07-13T06:01:11;98493.91;;;18.57;82.40
49843;BME280;55559;48.898;9.184;2023-07-13T06:03:39;98499.53;;;18.92;82.25
49843;BME280;55559;48.898;9.184;2023-07-13T06:06:07;98503.56;;;19.39;79.68
49843;BME280;55559;48.898;9.184;2023-07-13T06:08:35;98512.34;;;19.69;79.28
49843;BME280;55559;48.898;9.184;2023-07-13T06:11:07;98508.50;;;20.00;76.57
49843;BME280;55559;48.898;9.184;2023-07-13T06:13:34;98503.94;;;20.64;71.29
49843;BME280;55559;48.898;9.184;2023-07-13T06:16:02;98511.09;;;21.67;65.11
49843;BME280;55559;48.898;9.184;2023-07-13T06:18:31;98517.69;;;23.23;59.70
49843;BME280;55559;48.898;9.184;2023-07-13T06:20:59;98519.66;;;21.70;63.36
49843;BME280;55559;48.898;9.184;2023-07-13T06:23:27;98520.19;;;20.77;68.58
49843;BME280;55559;48.898;9.184;2023-07-13T06:25:54;98512.34;;;20.89;67.20
49843;BME280;55559;48.898;9.184;2023-07-13T06:28:23;98521.63;;;21.15;64.70
49843;BME280;55559;48.898;9.184;2023-07-13T06:30:51;98532.31;;;20.88;66.50
49843;BME280;55559;48.898;9.184;2023-07-13T06:33:18;98536.25;;;20.86;65.82
49843;BME280;55559;48.898;9.184;2023-07-13T06:35:46;98535.66;;;20.55;67.21
49843;BME280;55559;48.898;9.184;2023-07-13T06:38:13;98533.19;;;21.77;62.44
49843;BME280;55559;48.898;9.184;2023-07-13T06:40:41;98539.19;;;23.25;57.45
49843;BME280;55559;48.898;9.184;2023-07-13T06:43:09;98534.63;;;23.89;55.88
49843;BME280;55559;48.898;9.184;2023-07-13T06:45:41;98540.53;;;24.04;53.95
49843;BME280;55559;48.898;9.184;2023-07-13T06:48:08;98543.34;;;23.59;54.55
49843;BME280;55559;48.898;9.184;2023-07-13T06:50:36;98546.13;;;24.09;52.30
49843;BME280;55559;48.898;9.184;2023-07-13T06:53:04;98551.56;;;24.97;50.18
49843;BME280;55559;48.898;9.184;2023-07-13T06:55:31;98548.66;;;23.02;56.28
49843;BME280;55559;48.898;9.184;2023-07-13T06:57:58;98558.41;;;22.31;59.58
49843;BME280;55559;48.898;9.184;2023-07-13T07:00:26;98552.56;;;22.34;58.57
49843;BME280;55559;48.898;9.184;2023-07-13T07:02:55;98557.34;;;21.99;59.92
49843;BME280;55559;48.898;9.184;2023-07-13T07:05:23;98558.81;;;21.95;60.08
49843;BME280;55559;48.898;9.184;2023-07-13T07:07:52;98560.44;;;21.55;61.96
49843;BME280;55559;48.898;9.184;2023-07-13T07:10:19;98564.25;;;20.71;65.46
49843;BME280;55559;48.898;9.184;2023-07-13T07:12:47;98567.88;;;21.40;63.62
49843;BME280;55559;48.898;9.184;2023-07-13T07:15:15;98559.25;;;22.32;58.65
49843;BME280;55559;48.898;9.184;2023-07-13T07:17:42;98565.41;;;22.85;57.34
49843;BME280;55559;48.898;9.184;2023-07-13T07:20:12;98564.56;;;22.78;57.72
49843;BME280;55559;48.898;9.184;2023-07-13T07:22:39;98568.41;;;22.37;57.67
49843;BME280;55559;48.898;9.184;2023-07-13T07:25:07;98571.38;;;23.14;54.44
49843;BME280;55559;48.898;9.184;2023-07-13T07:27:35;98564.44;;;23.18;53.71
49843;BME280;55559;48.898;9.184;2023-07-13T07:30:03;98564.63;;;22.65;54.64
49843;BME280;55559;48.898;9.184;2023-07-13T07:32:30;98569.22;;;22.51;52.81
49843;BME280;55559;48.898;9.184;2023-07-13T07:34:58;98564.25;;;22.28;53.25
49843;BME280;55559;48.898;9.184;2023-07-13T07:37:27;98564.72;;;22.97;53.35
49843;BME280;55559;48.898;9.184;2023-07-13T07:39:54;98576.41;;;22.97;54.09
49843;BME280;55559;48.898;9.184;2023-07-13T07:42:22;98572.19;;;22.36;56.95
49843;BME280;55559;48.898;9.184;2023-07-13T07:44:49;98572.41;;;23.00;54.38
49843;BME280;55559;48.898;9.184;2023-07-13T07:47:17;98563.25;;;23.08;53.38
49843;BME280;55559;48.898;9.184;2023-07-13T07:49:44;98561.22;;;22.83;52.97
49843;BME280;55559;48.898;9.184;2023-07-13T07:52:11;98560.88;;;22.26;54.64
49843;BME280;55559;48.898;9.184;2023-07-13T07:54:40;98560.84;;;22.73;52.97
49843;BME280;55559;48.898;9.184;2023-07-13T07:57:08;98561.56;;;22.35;54.26
49843;BME280;55559;48.898;9.184;2023-07-13T07:59:36;98571.31;;;22.02;55.34
49843;BME280;55559;48.898;9.184;2023-07-13T08:02:04;98567.50;;;21.57;57.40
49843;BME280;55559;48.898;9.184;2023-07-13T08:04:32;98569.41;;;21.63;56.16
49843;BME280;55559;48.898;9.184;2023-07-13T08:06:59;98558.41;;;22.04;55.08
49843;BME280;55559;48.898;9.184;2023-07-13T08:09:28;98562.56;;;22.14;53.80
49843;BME280;55559;48.898;9.184;2023-07-13T08:11:57;98572.56;;;22.20;52.72
49843;BME280;55559;48.898;9.184;2023-07-13T08:14:24;98572.56;;;21.86;54.49
49843;BME280;55559;48.898;9.184;2023-07-13T08:16:52;98571.31;;;22.09;53.77
49843;BME280;55559;48.898;9.184;2023-07-13T08:19:19;98581.88;;;21.50;55.40
49843;BME280;55559;48.898;9.184;2023-07-13T08:21:47;98574.31;;;21.39;57.29
49843;BME280;55559;48.898;9.184;2023-07-13T08:24:15;98574.44;;;22.06;56.10
49843;BME280;55559;48.898;9.184;2023-07-13T08:26:44;98568.59;;;21.89;52.15
49843;BME280;55559;48.898;9.184;2023-07-13T08:29:13;98577.16;;;22.06;52.22
49843;BME280;55559;48.898;9.184;2023-07-13T08:31:41;98575.09;;;22.28;52.13
49843;BME280;55559;48.898;9.184;2023-07-13T08:34:08;98583.63;;;22.32;51.89
49843;BME280;55559;48.898;9.184;2023-07-13T08:36:36;98574.44;;;21.79;53.08
49843;BME280;55559;48.898;9.184;2023-07-13T08:39:03;98572.78;;;22.52;52.55
49843;BME280;55559;48.898;9.184;2023-07-13T08:41:33;98568.38;;;22.57;52.54
49843;BME280;55559;48.898;9.184;2023-07-13T08:44:03;98575.91;;;22.55;53.71
49843;BME280;55559;48.898;9.184;2023-07-13T08:46:36;98586.72;;;22.62;52.51
49843;BME280;55559;48.898;9.184;2023-07-13T08:49:10;98581.75;;;22.45;53.50
49843;BME280;55559;48.898;9.184;2023-07-13T08:51:42;98572.56;;;22.53;51.96
49843;BME280;55559;48.898;9.184;2023-07-13T08:54:19;98589.13;;;22.97;51.99
49843;BME280;55559;48.898;9.184;2023-07-13T08:56:50;98574.50;;;23.11;51.60
49843;BME280;55559;48.898;9.184;2023-07-13T08:59:24;98588.97;;;23.82;50.52
49843;BME280;55559;48.898;9.184;2023-07-13T09:02:14;98593.03;;;23.98;50.63
49843;BME280;55559;48.898;9.184;2023-07-13T09:04:48;98582.88;;;23.87;49.87
49843;BME280;55559;48.898;9.184;2023-07-13T09:07:26;98588.81;;;23.32;51.03
49843;BME280;55559;48.898;9.184;2023-07-13T09:10:05;98582.91;;;22.83;50.29
49843;BME280;55559;48.898;9.184;2023-07-13T09:12:40;98581.25;;;23.40;49.79
49843;BME280;55559;48.898;9.184;2023-07-13T09:15:22;98581.56;;;23.57;49.54
49843;BME280;55559;48.898;9.184;2023-07-13T09:17:55;98585.56;;;24.19;47.66
49843;BME280;55559;48.898;9.184;2023-07-13T09:20:25;98588.13;;;24.39;47.04
49843;BME280;55559;48.898;9.184;2023-07-13T09:22:55;98587.44;;;24.87;46.10
49843;BME280;55559;48.898;9.184;2023-07-13T09:25:29;98582.16;;;24.74;46.16
49843;BME280;55559;48.898;9.184;2023-07-13T09:27:59;98590.09;;;24.50;45.73
49843;BME280;55559;48.898;9.184;2023-07-13T09:30:34;98578.72;;;24.60;45.08
49843;BME280;55559;48.898;9.184;2023-07-13T09:33:06;98589.16;;;24.38;47.26
49843;BME280;55559;48.898;9.184;2023-07-13T09:35:34;98586.72;;;24.29;46.33
49843;BME280;55559;48.898;9.184;2023-07-13T09:38:11;98584.38;;;24.33;46.83
49843;BME280;55559;48.898;9.184;2023-07-13T09:40:56;98581.78;;;24.88;46.37
49843;BME280;55559;48.898;9.184;2023-07-13T09:43:26;98586.38;;;25.06;43.89
49843;BME280;55559;48.898;9.184;2023-07-13T09:45:54;98579.66;;;24.72;44.33
49843;BME280;55559;48.898;9.184;2023-07-13T09:48:24;98587.69;;;25.53;43.10
49843;BME280;55559;48.898;9.184;2023-07-13T09:50:54;98583.00;;;24.74;44.20
49843;BME280;55559;48.898;9.184;2023-07-13T09:53:23;98586.53;;;25.12;43.56
49843;BME280;55559;48.898;9.184;2023-07-13T09:55:50;98583.22;;;25.10;43.93
49843;BME280;55559;48.898;9.184;2023-07-13T09:58:20;98572.19;;;24.67;44.49
49843;BME280;55559;48.898;9.184;2023-07-13T10:00:56;98586.25;;;25.01;44.86
49843;BME280;55559;48.898;9.184;2023-07-13T10:03:29;98588.25;;;24.87;43.11
49843;BME280;55559;48.898;9.184;2023-07-13T10:06:11;98579.56;;;24.60;43.44
49843;BME280;55559;48.898;9.184;2023-07-13T10:08:39;98578.00;;;24.71;43.26
49843;BME280;55559;48.898;9.184;2023-07-13T10:11:11;98572.88;;;25.00;44.13
49843;BME280;55559;48.898;9.184;2023-07-13T10:13:42;98578.28;;;25.37;44.12
49843;BME280;55559;48.898;9.184;2023-07-13T10:16:11;98583.88;;;25.23;43.89
49843;BME280;55559;48.898;9.184;2023-07-13T10:18:44;98582.16;;;25.11;44.58
49843;BME280;55559;48.898;9.184;2023-07-13T10:21:16;98578.44;;;25.05;44.29
49843;BME280;55559;48.898;9.184;2023-07-13T10:23:45;98584.69;;;25.24;43.73
49843;BME280;55559;48.898;9.184;2023-07-13T10:26:21;98577.22;;;25.01;44.50
49843;BME280;55559;48.898;9.184;2023-07-13T10:28:53;98571.13;;;25.05;44.16
49843;BME280;55559;48.898;9.184;2023-07-13T10:31:22;98577.06;;;25.14;42.86
49843;BME280;55559;48.898;9.184;2023-07-13T10:33:51;98571.75;;;25.68;41.84
49843;BME280;55559;48.898;9.184;2023-07-13T10:36:28;98581.03;;;25.00;43.36
49843;BME280;55559;48.898;9.184;2023-07-13T10:39:00;98570.03;;;25.43;42.77
49843;BME280;55559;48.898;9.184;2023-07-13T10:41:31;98575.19;;;24.34;43.94
49843;BME280;55559;48.898;9.184;2023-07-13T10:44:01;98569.63;;;25.10;43.13
49843;BME280;55559;48.898;9.184;2023-07-13T10:46:30;98575.56;;;25.37;43.96
49843;BME280;55559;48.898;9.184;2023-07-13T10:49:01;98568.63;;;25.83;41.98
49843;BME280;55559;48.898;9.184;2023-07-13T10:51:31;98578.13;;;24.58;43.45
49843;BME280;55559;48.898;9.184;2023-07-13T10:54:16;98565.44;;;24.70;43.76
49843;BME280;55559;48.898;9.184;2023-07-13T10:56:45;98582.47;;;23.90;44.90
49843;BME280;55559;48.898;9.184;2023-07-13T10:59:16;98570.97;;;24.82;43.75
49843;BME280;55559;48.898;9.184;2023-07-13T11:01:55;98564.63;;;25.06;43.04
49843;BME280;55559;48.898;9.184;2023-07-13T11:04:26;98555.19;;;25.70;41.18
49843;BME280;55559;48.898;9.184;2023-07-13T11:06:58;98554.66;;;27.09;39.00
49843;BME280;55559;48.898;9.184;2023-07-13T11:09:36;98565.56;;;25.49;42.05
49843;BME280;55559;48.898;9.184;2023-07-13T11:12:10;98551.28;;;26.08;40.69
49843;BME280;55559;48.898;9.184;2023-07-13T11:15:11;98549.81;;;25.93;42.23
49843;BME280;55559;48.898;9.184;2023-07-13T11:17:49;98544.28;;;26.47;39.92
49843;BME280;55559;48.898;9.184;2023-07-13T11:20:41;98540.88;;;26.64;39.96
49843;BME280;55559;48.898;9.184;2023-07-13T11:23:29;98547.34;;;26.04;40.71
49843;BME280;55559;48.898;9.184;2023-07-13T11:25:58;98548.91;;;25.57;40.64
49843;BME280;55559;48.898;9.184;2023-07-13T11:28:30;98532.19;;;25.96;39.42
49843;BME280;55559;48.898;9.184;2023-07-13T11:31:03;98540.16;;;25.97;40.41
49843;BME280;55559;48.898;9.184;2023-07-13T11:33:59;98541.81;;;26.22;40.48
49843;BME280;55559;48.898;9.184;2023-07-13T11:36:31;98535.63;;;26.03;39.38
49843;BME280;55559;48.898;9.184;2023-07-13T11:39:10;98541.47;;;25.16;41.08
49843;BME280;55559;48.898;9.184;2023-07-13T11:41:44;98520.41;;;25.84;40.58
49843;BME280;55559;48.898;9.184;2023-07-13T11:44:14;98541.09;;;25.31;40.93
49843;BME280;55559;48.898;9.184;2023-07-13T11:46:47;98543.00;;;25.60;40.40
49843;BME280;55559;48.898;9.184;2023-07-13T11:49:18;98529.59;;;26.01;39.77
49843;BME280;55559;48.898;9.184;2023-07-13T11:51:48;98536.56;;;25.55;40.48
49843;BME280;55559;48.898;9.184;2023-07-13T11:54:28;98551.41;;;24.92;41.95
49843;BME280;55559;48.898;9.184;2023-07-13T11:56:57;98541.19;;;25.05;41.95
49843;BME280;55559;48.898;9.184;2023-07-13T11:59:27;98540.25;;;25.60;40.48
49843;BME280;55559;48.898;9.184;2023-07-13T12:01:57;98537.69;;;26.67;38.91
49843;BME280;55559;48.898;9.184;2023-07-13T12:04:27;98543.53;;;26.99;38.55
49843;BME280;55559;48.898;9.184;2023-07-13T12:07:05;98538.22;;;26.92;39.11
49843;BME280;55559;48.898;9.184;2023-07-13T12:09:33;98548.34;;;26.68;39.45
49843;BME280;55559;48.898;9.184;2023-07-13T12:12:02;98542.16;;;26.38;39.14
49843;BME280;55559;48.898;9.184;2023-07-13T12:14:33;98547.59;;;26.85;37.92
49843;BME280;55559;48.898;9.184;2023-07-13T12:17:01;98538.84;;;26.12;39.43
49843;BME280;55559;48.898;9.184;2023-07-13T12:19:35;98541.63;;;25.93;38.91
49843;BME280;55559;48.898;9.184;2023-07-13T12:22:07;98551.78;;;26.16;39.08
49843;BME280;55559;48.898;9.184;2023-07-13T12:24:37;98537.13;;;25.87;39.84
49843;BME280;55559;48.898;9.184;2023-07-13T12:27:05;98539.44;;;26.38;39.00
49843;BME280;55559;48.898;9.184;2023-07-13T12:29:33;98533.38;;;26.59;38.04
49843;BME280;55559;48.898;9.184;2023-07-13T12:32:00;98531.94;;;27.33;37.34
49843;BME280;55559;48.898;9.184;2023-07-13T12:34:28;98531.19;;;25.90;39.01
49843;BME280;55559;48.898;9.184;2023-07-13T12:36:56;98526.06;;;26.48;38.06
49843;BME280;55559;48.898;9.184;2023-07-13T12:39:32;98537.44;;;26.09;38.77
49843;BME280;55559;48.898;9.184;2023-07-13T12:42:18;98529.28;;;27.09;37.55
49843;BME280;55559;48.898;9.184;2023-07-13T12:44:48;98540.13;;;27.33;36.64
49843;BME280;55559;48.898;9.184;2023-07-13T12:47:16;98526.41;;;26.40;36.55
49843;BME280;55559;48.898;9.184;2023-07-13T12:49:48;98540.59;;;26.89;36.43
49843;BME280;55559;48.898;9.184;2023-07-13T12:52:20;98529.78;;;26.94;36.32
49843;BME280;55559;48.898;9.184;2023-07-13T12:54:57;98517.63;;;26.49;36.69
49843;BME280;55559;48.898;9.184;2023-07-13T12:57:26;98534.53;;;26.99;36.54
49843;BME280;55559;48.898;9.184;2023-07-13T12:59:54;98540.25;;;26.85;36.03
49843;BME280;55559;48.898;9.184;2023-07-13T13:02:28;98552.13;;;26.67;36.72
49843;BME280;55559;48.898;9.184;2023-07-13T13:04:57;98528.72;;;26.95;36.30
49843;BME280;55559;48.898;9.184;2023-07-13T13:07:25;98525.41;;;27.22;36.02
49843;BME280;55559;48.898;9.184;2023-07-13T13:09:53;98531.50;;;26.60;37.12
49843;BME280;55559;48.898;9.184;2023-07-13T13:12:22;98536.22;;;26.41;36.85